createdAt,value
2019-05-05T13:01:09.294Z,46.09
2019-05-05T13:03:38.050Z,46.35
2019-05-05T13:06:06.798Z,46.96
2019-05-05T13:08:36.491Z,47.01
2019-05-05T13:11:05.208Z,45.78
2019-05-05T13:13:34.620Z,46.92
2019-05-05T13:16:04.305Z,46.06
2019-05-05T13:18:33.934Z,44.50
2019-05-05T13:21:19.490Z,44.92
2019-05-05T13:24:01.832Z,44.91
2019-05-05T13:26:48.285Z,46.68
2019-05-05T13:29:17.003Z,46.18
2019-05-05T13:31:45.737Z,47.47
2019-05-05T13:34:14.955Z,48.65
2019-05-05T13:36:44.252Z,50.55
2019-05-05T13:39:14.458Z,50.51
2019-05-05T13:41:44.898Z,48.94
2019-05-05T13:44:15.311Z,48.83
2019-05-05T13:46:44.593Z,49.20
2019-05-05T13:49:18.256Z,50.10
2019-05-05T13:51:46.978Z,50.01
2019-05-05T13:54:15.708Z,51.63
2019-05-05T13:56:44.672Z,51.24
2019-05-05T13:59:14.802Z,50.62
2019-05-05T14:01:44.776Z,50.69
2019-05-05T14:04:14.554Z,48.89
2019-05-05T14:06:44.444Z,48.39
2019-05-05T14:09:13.975Z,47.40
2019-05-05T14:11:44.546Z,47.87
2019-05-05T14:14:13.910Z,47.24
2019-05-05T14:16:44.665Z,47.67
2019-05-05T14:19:14.626Z,47.66
2019-05-05T14:21:44.601Z,49.22
2019-05-05T14:24:19.333Z,50.37
2019-05-05T14:26:49.809Z,51.00
2019-05-05T14:29:23.989Z,51.87
2019-05-05T14:31:55.523Z,51.79
2019-05-05T14:34:25.969Z,51.31
2019-05-05T14:37:16.322Z,50.99
2019-05-05T14:39:46.184Z,52.13
2019-05-05T14:42:14.919Z,52.04
2019-05-05T14:44:44.158Z,51.90
2019-05-05T14:47:13.627Z,52.54
2019-05-05T14:49:44.402Z,51.81
2019-05-05T14:52:13.751Z,50.57
2019-05-05T14:54:43.456Z,50.35
2019-05-05T14:57:14.031Z,51.29
2019-05-05T14:59:43.730Z,52.62
2019-05-05T15:02:14.429Z,53.67
2019-05-05T15:04:44.338Z,53.72
2019-05-05T15:07:16.364Z,53.32
2019-05-05T15:09:50.896Z,53.97
2019-05-05T15:12:23.575Z,54.64
2019-05-05T15:14:51.854Z,55.04
2019-05-05T15:17:20.584Z,54.75
2019-05-05T15:19:49.488Z,55.06
2019-05-05T15:22:19.715Z,55.76
2019-05-05T15:24:48.782Z,56.15
2019-05-05T15:27:17.541Z,56.94
2019-05-05T15:29:47.533Z,57.13
2019-05-05T15:32:16.270Z,57.47
2019-05-05T15:34:45.631Z,58.29
2019-05-05T15:37:14.565Z,59.33
2019-05-05T15:39:44.144Z,59.38
2019-05-05T15:42:14.036Z,58.77
2019-05-05T15:44:43.918Z,59.46
2019-05-05T15:47:12.750Z,59.47
2019-05-05T15:49:41.576Z,59.44
2019-05-05T15:52:10.341Z,59.72
2019-05-05T15:54:59.342Z,59.95
2019-05-05T15:57:28.067Z,60.61
2019-05-05T15:59:56.937Z,61.06
2019-05-05T16:02:25.667Z,61.50
2019-05-05T16:04:54.390Z,61.50
2019-05-05T16:07:26.987Z,62.54
2019-05-05T16:09:55.714Z,62.85
2019-05-05T16:12:31.965Z,63.51
2019-05-05T16:14:56.609Z,63.33
2019-05-05T16:17:35.877Z,63.21
2019-05-05T16:20:08.743Z,62.38
2019-05-05T16:22:39.041Z,62.27
2019-05-05T16:25:11.130Z,61.72
2019-05-05T16:27:41.566Z,61.86
2019-05-05T16:30:14.462Z,61.89
2019-05-05T16:32:43.283Z,62.16
2019-05-05T16:35:14.577Z,62.54
2019-05-05T16:37:43.449Z,62.78
2019-05-05T16:40:14.467Z,62.86
2019-05-05T16:42:44.020Z,62.75
2019-05-05T16:45:16.481Z,63.32
2019-05-05T16:47:45.447Z,63.37
2019-05-05T16:50:15.031Z,63.45
2019-05-05T16:52:46.075Z,63.68
2019-05-05T16:55:16.910Z,63.19
2019-05-05T16:57:45.746Z,62.59
2019-05-05T17:00:15.201Z,62.74
2019-05-05T17:02:44.475Z,63.24
2019-05-05T17:05:13.786Z,63.00
2019-05-05T17:07:42.466Z,63.29
2019-05-05T17:10:13.820Z,63.41
2019-05-05T17:12:44.290Z,63.42
2019-05-05T17:15:30.307Z,63.40
2019-05-05T17:18:10.203Z,63.48
2019-05-05T17:20:53.546Z,63.71
2019-05-05T17:23:23.868Z,63.57
2019-05-05T17:25:53.794Z,63.84
2019-05-05T17:28:23.865Z,64.17
2019-05-05T17:30:54.322Z,64.61
2019-05-05T17:33:24.131Z,65.24
2019-05-05T17:35:53.929Z,65.60
2019-05-05T17:38:24.424Z,66.31
2019-05-05T17:40:54.766Z,66.80
2019-05-05T17:43:40.264Z,67.26
2019-05-05T17:46:10.558Z,67.73
2019-05-05T17:48:54.077Z,68.45
2019-05-05T17:51:26.287Z,69.50
2019-05-05T17:54:05.471Z,70.99
2019-05-05T17:56:34.189Z,71.56
2019-05-05T17:59:04.413Z,71.76
2019-05-05T18:01:34.763Z,72.63
2019-05-05T18:04:04.131Z,72.73
2019-05-05T18:06:34.593Z,72.99
2019-05-05T18:09:18.056Z,72.73
2019-05-05T18:12:01.749Z,72.59
2019-05-05T18:14:34.427Z,72.69
2019-05-05T18:17:04.212Z,72.83
2019-05-05T18:19:34.022Z,73.42
2019-05-05T18:22:03.151Z,73.57
2019-05-05T18:24:33.569Z,74.07
2019-05-05T18:27:04.419Z,74.16
2019-05-05T18:29:34.081Z,74.52
2019-05-05T18:32:04.319Z,74.93
2019-05-05T18:34:33.223Z,74.72
2019-05-05T18:37:03.764Z,74.73
2019-05-05T18:39:34.276Z,74.76
2019-05-05T18:42:04.732Z,74.76
2019-05-05T18:44:41.312Z,75.26
2019-05-05T18:47:17.934Z,75.53
2019-05-05T18:49:44.983Z,75.47
2019-05-05T18:52:14.078Z,75.41
2019-05-05T18:54:43.610Z,75.34
2019-05-05T18:57:12.809Z,75.52
2019-05-05T18:59:44.631Z,75.97
2019-05-05T19:02:14.771Z,76.61
2019-05-05T19:04:50.917Z,77.18
2019-05-05T19:07:21.223Z,77.27
2019-05-05T19:09:53.835Z,77.09
2019-05-05T19:12:34.670Z,77.27
2019-05-05T19:15:04.488Z,77.64
2019-05-05T19:17:34.508Z,77.48
2019-05-05T19:20:06.520Z,78.28
2019-05-05T19:22:36.116Z,79.08
2019-05-05T19:25:16.468Z,79.47
2019-05-05T19:27:49.564Z,79.83
2019-05-05T19:30:18.586Z,78.98
2019-05-05T19:32:47.347Z,78.33
2019-05-05T19:35:19.184Z,78.39
2019-05-05T19:37:48.045Z,77.22
2019-05-05T19:40:17.070Z,75.48
2019-05-05T19:42:48.961Z,73.75
2019-05-05T19:45:19.158Z,72.95
2019-05-05T19:47:50.782Z,73.21
2019-05-05T19:50:37.274Z,74.11
2019-05-05T19:53:07.735Z,75.49
2019-05-05T19:55:38.981Z,75.85
2019-05-05T19:58:09.427Z,76.24
2019-05-05T20:00:39.679Z,76.12
2019-05-05T20:03:10.983Z,76.21
2019-05-05T20:05:43.101Z,76.75
2019-05-05T20:08:10.845Z,77.33
2019-05-05T20:10:39.889Z,77.76
2019-05-05T20:13:10.085Z,77.55
2019-05-05T20:15:40.497Z,78.10
2019-05-05T20:18:09.234Z,78.43
2019-05-05T20:20:38.192Z,78.62
2019-05-05T20:23:07.000Z,77.98
2019-05-05T20:25:35.717Z,78.02
2019-05-05T20:28:04.618Z,77.77
2019-05-05T20:30:34.236Z,77.93
2019-05-05T20:33:06.175Z,78.66
2019-05-05T20:37:24.668Z,79.28
2019-05-05T20:38:37.727Z,80.05
2019-05-05T20:41:08.105Z,80.27
2019-05-05T20:43:39.967Z,80.19
2019-05-05T20:46:08.896Z,79.92
2019-05-05T20:48:40.956Z,80.53
2019-05-05T20:51:08.252Z,80.83
2019-05-05T20:53:36.984Z,80.93
2019-05-05T20:56:05.998Z,81.63
2019-05-05T20:58:34.996Z,81.99
2019-05-05T21:01:13.985Z,82.00
2019-05-05T21:03:46.094Z,82.49
2019-05-05T21:06:14.846Z,83.16
2019-05-05T21:08:44.178Z,82.65
2019-05-05T21:11:14.120Z,81.59
2019-05-05T21:13:45.019Z,81.48
2019-05-05T21:16:14.250Z,81.56
2019-05-05T21:18:43.312Z,81.94
2019-05-05T21:21:13.950Z,82.56
2019-05-05T21:23:47.477Z,83.36
2019-05-05T21:26:20.794Z,84.15
2019-05-05T21:28:49.518Z,84.77
2019-05-05T21:31:18.232Z,85.32
2019-05-05T21:33:47.100Z,85.66
2019-05-05T21:36:15.824Z,85.92
2019-05-05T21:38:44.547Z,86.98
2019-05-05T21:41:13.910Z,87.33
2019-05-05T21:43:44.668Z,87.85
2019-05-05T21:46:13.167Z,88.56
2019-05-05T21:48:41.935Z,88.78
2019-05-05T21:51:30.438Z,88.76
2019-05-05T21:54:00.780Z,89.23
2019-05-05T21:56:34.202Z,89.50
2019-05-05T21:59:04.243Z,90.06
2019-05-05T22:01:39.781Z,90.00
2019-05-05T22:04:04.828Z,90.62
2019-05-05T22:06:33.692Z,91.41
2019-05-05T22:09:04.049Z,91.85
2019-05-05T22:11:32.894Z,92.53
2019-05-05T22:14:01.623Z,92.89
2019-05-05T22:16:30.483Z,92.34
2019-05-05T22:18:59.206Z,91.33
2019-05-05T22:21:35.665Z,90.40
2019-05-05T22:24:16.492Z,89.92
2019-05-05T22:26:45.619Z,89.55
2019-05-05T22:29:17.040Z,89.88
2019-05-05T22:31:45.816Z,90.59
2019-05-05T22:34:14.764Z,90.40
2019-05-05T22:36:44.818Z,90.34
2019-05-05T22:39:16.829Z,90.51
2019-05-05T22:41:44.994Z,90.67
2019-05-05T22:44:14.101Z,90.52
2019-05-05T22:46:43.123Z,90.47
2019-05-05T22:49:12.146Z,90.52
2019-05-05T22:51:40.866Z,90.72
2019-05-05T22:54:10.061Z,90.93
2019-05-05T22:56:38.783Z,91.43
2019-05-05T22:59:07.707Z,91.17
2019-05-05T23:01:36.598Z,90.17
2019-05-05T23:04:25.274Z,90.05
2019-05-05T23:07:04.956Z,90.16
2019-05-05T23:09:33.679Z,90.28
2019-05-05T23:12:04.224Z,90.40
2019-05-05T23:14:34.226Z,90.74
2019-05-05T23:17:19.688Z,91.24
2019-05-05T23:19:50.020Z,91.29
2019-05-05T23:22:36.722Z,91.16
2019-05-05T23:25:08.040Z,90.79
2019-05-05T23:27:50.410Z,90.22
2019-05-05T23:30:23.881Z,90.28
2019-05-05T23:32:54.610Z,90.10
2019-05-05T23:35:23.935Z,90.38
2019-05-05T23:37:55.065Z,89.95
2019-05-05T23:40:26.298Z,89.77
2019-05-05T23:42:55.092Z,89.83
2019-05-05T23:45:25.165Z,90.07
2019-05-05T23:47:54.656Z,90.07
2019-05-05T23:50:24.008Z,90.84
2019-05-05T23:52:54.427Z,90.98
2019-05-05T23:55:24.205Z,91.79
2019-05-05T23:57:54.624Z,92.26
